Time;durP1;ratioP1;P1;durP2;ratioP2;P2;SDS_P1;SDS_P2;PMS_P1;PMS_P2;Temp;Humidity;BMP_temperature;BMP_pressure;BME280_temperature;BME280_humidity;BME280_pressure;Samples;Min_cycle;Max_cycle;Signal;HPM_P1;HPM_P2
2022/11/08 00:02:25;;;;;;;;;6.50;6.25;;;;;4.25;83.80;98728.38;4904440;28;102149;-71
2022/11/08 00:04:53;;;;;;;;;12.00;11.50;;;;;4.21;83.90;98727.03;4902407;28;104014;-71
2022/11/08 00:15:37;;;;;;;;;29.75;21.75;;;;;3.83;85.84;98734.44;4911232;28;108770;-71
2022/11/08 00:18:05;;;;;;;;;44.00;36.25;;;;;3.75;87.70;98731.69;4907994;28;102474;-71
2022/11/08 00:20:33;;;;;;;;;28.00;19.75;;;;;3.59;87.66;98713.72;4907645;28;102034;-72
2022/11/08 00:23:00;;;;;;;;;31.25;30.00;;;;;3.75;87.39;98725.50;4904563;28;103558;-71
2022/11/08 00:25:27;;;;;;;;;26.50;23.50;;;;;3.78;87.19;98734.06;4900562;28;104472;-71
2022/11/08 00:27:54;;;;;;;;;23.50;17.25;;;;;3.79;86.16;98734.91;4901923;28;102814;-71
2022/11/08 00:30:21;;;;;;;;;16.25;14.00;;;;;3.76;85.29;98733.38;4905588;28;102426;-71
2022/11/08 00:32:48;;;;;;;;;14.50;12.00;;;;;3.70;85.43;98739.34;4911069;28;102355;-71
2022/11/08 00:35:15;;;;;;;;;11.00;8.50;;;;;3.68;85.87;98743.19;4907670;28;103953;-71
2022/11/08 00:37:42;;;;;;;;;16.75;14.25;;;;;3.60;85.69;98751.97;4902714;28;102326;-71
2022/11/08 00:40:10;;;;;;;;;11.75;10.50;;;;;3.54;86.25;98734.72;4904930;28;102441;-71
2022/11/08 00:42:36;;;;;;;;;36.00;28.00;;;;;3.45;87.00;98746.31;4902671;28;102513;-71
2022/11/08 00:45:04;;;;;;;;;29.25;25.75;;;;;3.44;87.19;98749.97;4895608;28;110778;-72
2022/11/08 00:47:32;;;;;;;;;20.75;16.75;;;;;3.44;87.53;98741.97;4906042;28;104257;-72
2022/11/08 00:49:59;;;;;;;;;20.25;17.50;;;;;3.44;87.24;98739.28;4903534;28;102961;-71
2022/11/08 00:52:26;;;;;;;;;14.50;12.25;;;;;3.49;86.13;98749.53;4903568;28;104216;-73
2022/11/08 00:54:53;;;;;;;;;11.25;10.25;;;;;3.46;85.88;98748.00;4901590;28;104082;-71
2022/11/08 00:57:20;;;;;;;;;13.50;12.50;;;;;3.40;85.89;98748.59;4900224;28;103006;-71
2022/11/08 01:00:07;;;;;;;;;43.25;35.75;;;;;3.22;86.62;98742.41;4902483;28;102322;-71
2022/11/08 01:02:34;;;;;;;;;31.00;30.75;;;;;3.18;86.34;98751.72;4901964;28;102280;-71
2022/11/08 01:05:01;;;;;;;;;18.50;14.00;;;;;3.19;87.03;98745.41;4907360;28;104116;-71
2022/11/08 01:07:28;;;;;;;;;39.50;36.75;;;;;3.08;87.04;98740.25;4903669;28;102310;-72
2022/11/08 01:09:55;;;;;;;;;32.25;25.50;;;;;3.08;87.79;98746.44;4906155;28;102958;-71
2022/11/08 01:12:22;;;;;;;;;25.25;22.75;;;;;3.10;86.66;98736.47;4900835;28;102447;-71
2022/11/08 01:14:49;;;;;;;;;17.50;13.75;;;;;3.12;86.38;98739.81;4902488;28;104793;-72
2022/11/08 01:17:16;;;;;;;;;15.75;12.75;;;;;3.13;86.19;98725.47;4902899;28;102887;-71
2022/11/08 01:19:43;;;;;;;;;6.50;5.50;;;;;3.14;85.94;98726.31;4905371;28;102121;-72
2022/11/08 01:22:10;;;;;;;;;7.25;6.00;;;;;3.13;85.58;98730.81;4906724;28;102602;-72
2022/11/08 01:24:37;;;;;;;;;10.75;7.25;;;;;3.13;86.13;98737.97;4901391;28;104133;-71
2022/11/08 01:27:04;;;;;;;;;13.50;7.00;;;;;3.17;87.14;98733.16;4905792;28;102626;-72
2022/11/08 01:29:32;;;;;;;;;7.75;7.25;;;;;3.11;87.31;98715.91;4906970;28;102367;-72
2022/11/08 01:31:59;;;;;;;;;8.75;6.75;;;;;3.27;88.50;98736.63;4907908;28;102411;-72
2022/11/08 01:34:25;;;;;;;;;5.75;4.75;;;;;3.30;88.32;98731.81;4907687;28;103642;-72
2022/11/08 01:36:52;;;;;;;;;8.00;7.25;;;;;3.34;88.13;98727.81;4905374;28;102583;-72
2022/11/08 01:39:19;;;;;;;;;6.25;3.50;;;;;3.38;87.51;98729.19;4903922;28;104147;-72
2022/11/08 01:41:46;;;;;;;;;16.25;15.50;;;;;3.33;88.28;98730.66;4905293;28;103052;-72
2022/11/08 01:44:16;;;;;;;;;27.75;25.00;;;;;3.24;88.04;98724.41;4905552;28;103924;-71
2022/11/08 01:46:46;;;;;;;;;65.00;50.00;;;;;3.00;89.81;98721.47;4902883;28;102633;-72
2022/11/08 01:49:23;;;;;;;;;54.67;43.33;;;;;2.95;89.00;98729.94;4902184;28;102276;-72
2022/11/08 01:52:05;;;;;;;;;54.00;42.33;;;;;2.92;89.24;98732.91;4907961;28;103939;-72
2022/11/08 01:55:03;;;;;;;;;52.00;40.33;;;;;2.89;89.11;98721.66;4906133;28;104113;-72
2022/11/08 01:57:39;;;;;;;;;37.33;33.00;;;;;2.93;89.98;98723.88;4908892;28;102025;-72
2022/11/08 02:00:09;;;;;;;;;30.75;29.25;;;;;2.95;89.66;98719.25;4897554;28;102427;-72
2022/11/08 02:02:41;;;;;;;;;27.25;23.50;;;;;2.96;88.93;98722.78;4906502;28;102581;-72
2022/11/08 02:05:26;;;;;;;;;58.33;46.00;;;;;2.76;89.90;98710.50;4903851;28;109630;-72
2022/11/08 02:08:13;;;;;;;;;57.00;45.33;;;;;2.73;90.06;98718.81;4904454;28;102537;-72
2022/11/08 02:11:18;;;;;;;;;40.00;32.00;;;;;2.75;90.33;98714.19;4894243;28;102124;-72
2022/11/08 02:14:08;;;;;;;;;53.00;45.00;;;;;2.78;90.55;98712.06;4901700;28;102372;-72
2022/11/08 02:16:51;;;;;;;;;60.00;42.33;;;;;2.76;90.03;98708.69;4904494;28;108485;-72
2022/11/08 02:19:47;;;;;;;;;68.67;52.00;;;;;2.85;92.62;98714.94;4914077;28;102432;-72
2022/11/08 02:22:52;;;;;;;;;62.33;45.00;;;;;2.79;90.43;98710.22;4904645;28;102357;-72
2022/11/08 02:25:40;;;;;;;;;54.00;42.67;;;;;2.80;90.77;98706.53;4903958;28;102331;-72
2022/11/08 02:28:14;;;;;;;;;68.00;45.33;;;;;2.76;91.46;98713.16;4906715;28;107890;-72
2022/11/08 02:30:42;;;;;;;;;63.67;49.00;;;;;2.73;90.67;98706.31;4901436;28;102667;-71
2022/11/08 02:33:20;;;;;;;;;57.00;41.00;;;;;2.65;89.80;98709.75;4912652;28;102433;-72
2022/11/08 02:35:50;;;;;;;;;58.67;45.00;;;;;2.66;90.52;98707.88;4906035;28;102479;-72
2022/11/08 02:38:18;;;;;;;;;65.67;49.00;;;;;2.60;90.93;98713.84;4898670;28;103930;-71
2022/11/08 02:40:51;;;;;;;;;51.00;42.00;;;;;2.64;89.94;98713.38;4910803;28;102216;-72
2022/11/08 02:43:19;;;;;;;;;51.33;39.00;;;;;2.67;89.92;98713.09;4909962;28;102416;-72
2022/11/08 02:45:46;;;;;;;;;35.67;31.00;;;;;2.69;89.77;98708.44;4915697;28;102224;-72
2022/11/08 02:48:15;;;;;;;;;28.25;26.75;;;;;2.70;89.00;98711.97;4911877;28;104007;-71
2022/11/08 02:50:43;;;;;;;;;35.33;28.67;;;;;2.52;89.01;98692.38;4906221;28;102067;-72
2022/11/08 02:53:10;;;;;;;;;42.67;31.33;;;;;2.58;87.94;98718.47;4907591;28;102236;-71
2022/11/08 02:55:37;;;;;;;;;62.67;49.67;;;;;2.19;88.03;98683.13;4904293;28;102051;-72
2022/11/08 02:58:04;;;;;;;;;71.67;53.33;;;;;2.17;88.19;98711.75;4909336;28;104073;-70
2022/11/08 03:00:31;;;;;;;;;60.33;42.00;;;;;2.10;88.42;98697.34;4906354;28;102370;-70
2022/11/08 03:02:58;;;;;;;;;72.67;52.00;;;;;1.99;88.37;98706.34;4914564;28;102258;-72
2022/11/08 03:05:27;;;;;;;;;66.00;49.67;;;;;1.68;88.68;98671.06;4914532;28;102055;-71
2022/11/08 03:07:54;;;;;;;;;64.33;51.00;;;;;1.88;88.90;98709.19;4911832;28;104011;-71
2022/11/08 03:10:23;;;;;;;;;58.00;45.67;;;;;1.87;89.12;98711.97;4910546;28;102379;-71
2022/11/08 03:13:02;;;;;;;;;61.00;48.33;;;;;1.83;88.85;98718.59;4910190;28;102047;-71
2022/11/08 03:15:29;;;;;;;;;64.00;51.33;;;;;1.78;89.61;98711.88;4903518;28;102093;-71
2022/11/08 03:17:57;;;;;;;;;71.67;50.33;;;;;1.76;89.24;98712.97;4904644;28;104296;-71
2022/11/08 03:20:25;;;;;;;;;68.67;49.00;;;;;1.74;89.29;98709.63;4910159;28;102847;-71
2022/11/08 03:23:00;;;;;;;;;73.33;52.33;;;;;1.69;88.92;98704.72;4910626;28;102381;-71
2022/11/08 03:25:28;;;;;;;;;78.33;59.00;;;;;1.62;89.75;98711.59;4907026;28;102123;-71
2022/11/08 03:27:55;;;;;;;;;76.50;59.00;;;;;1.62;89.37;98708.94;4902455;28;104143;-71
2022/11/08 03:30:22;;;;;;;;;79.00;59.33;;;;;1.67;90.00;98703.16;4905345;28;102830;-70
2022/11/08 03:32:49;;;;;;;;;80.67;58.33;;;;;1.64;89.27;98714.13;4902289;28;102386;-71
2022/11/08 03:35:16;;;;;;;;;64.00;48.33;;;;;1.66;89.20;98712.16;4916523;28;103910;-71
2022/11/08 03:37:53;;;;;;;;;64.00;47.67;;;;;1.65;88.66;98711.34;4907971;28;104193;-70
2022/11/08 03:40:21;;;;;;;;;68.67;55.33;;;;;1.59;89.49;98719.03;4910539;28;105620;-71
2022/11/08 03:42:48;;;;;;;;;66.00;52.33;;;;;1.40;89.29;98681.78;4912033;28;102091;-72
2022/11/08 03:45:16;;;;;;;;;64.00;48.67;;;;;1.58;89.80;98718.19;4901513;28;102313;-72
2022/11/08 03:47:45;;;;;;;;;70.00;54.33;;;;;1.56;89.63;98714.84;4902840;28;104169;-72
2022/11/08 03:50:14;;;;;;;;;85.00;59.25;;;;;1.56;90.77;98714.00;4905581;28;102740;-71
2022/11/08 03:52:43;;;;;;;;;79.00;58.00;;;;;1.51;89.17;98716.25;4911164;28;102266;-72
2022/11/08 03:55:11;;;;;;;;;80.67;59.67;;;;;1.46;88.80;98711.34;4909342;28;102421;-71
2022/11/08 03:57:39;;;;;;;;;73.75;58.50;;;;;1.39;89.13;98723.56;4912494;28;104371;-71
2022/11/08 04:00:09;;;;;;;;;76.67;54.00;;;;;1.39;88.84;98717.38;4939228;28;102536;-71
2022/11/08 04:02:36;;;;;;;;;60.33;48.33;;;;;1.42;89.11;98714.44;4906664;28;102326;-71
2022/11/08 04:05:04;;;;;;;;;49.00;41.00;;;;;1.46;89.25;98708.69;4903810;28;102136;-71
2022/11/08 04:07:31;;;;;;;;;47.67;39.00;;;;;1.53;88.63;98715.09;4906656;28;103260;-71
2022/11/08 04:09:58;;;;;;;;;36.33;29.33;;;;;1.55;88.71;98707.81;4903392;28;102859;-71
2022/11/08 04:15:18;;;;;;;;;77.00;57.00;;;;;1.32;89.11;98706.44;4896627;28;103528;-71
2022/11/08 04:23:28;;;;;;;;;96.00;70.00;;;;;1.13;90.09;98701.09;4905898;28;102451;-71
2022/11/08 04:25:58;;;;;;;;;97.50;69.50;;;;;1.10;90.82;98702.22;4906751;28;102300;-70
2022/11/08 04:28:27;;;;;;;;;89.25;68.00;;;;;1.10;91.32;98696.91;4906284;28;105053;-70
2022/11/08 04:30:56;;;;;;;;;82.75;63.00;;;;;1.04;91.56;98673.50;4905424;28;102433;-70
2022/11/08 04:33:24;;;;;;;;;87.00;64.75;;;;;1.17;91.18;98697.19;4903499;28;101863;-71
2022/11/08 04:35:52;;;;;;;;;74.33;53.67;;;;;1.05;90.94;98664.53;4902767;28;103491;-70
2022/11/08 04:38:20;;;;;;;;;54.00;42.00;;;;;1.33;90.88;98702.78;4902643;28;103067;-72
2022/11/08 04:40:47;;;;;;;;;12.67;6.00;;;;;1.27;90.87;98682.88;4892749;28;102325;-71
2022/11/08 04:43:14;;;;;;;;;47.00;40.67;;;;;1.38;89.40;98700.56;4902562;28;102321;-70
2022/11/08 04:45:41;;;;;;;;;63.33;44.67;;;;;1.34;88.07;98694.66;4901585;28;103937;-71
2022/11/08 04:48:09;;;;;;;;;68.00;50.33;;;;;1.20;88.39;98686.25;4900660;28;104276;-71
2022/11/08 04:50:36;;;;;;;;;61.00;45.33;;;;;1.09;88.33;98695.22;4903128;28;102394;-70
2022/11/08 04:53:03;;;;;;;;;43.00;35.00;;;;;1.11;88.78;98697.75;4900894;28;102282;-70
2022/11/08 04:55:30;;;;;;;;;31.00;30.33;;;;;1.14;88.92;98694.78;4903614;28;102162;-70
2022/11/08 04:57:57;;;;;;;;;37.00;37.00;;;;;0.97;88.62;98668.88;4908357;28;104181;-70
2022/11/08 05:00:25;;;;;;;;;43.67;37.00;;;;;1.07;88.04;98683.88;4907562;28;102612;-69
2022/11/08 05:02:53;;;;;;;;;48.00;40.00;;;;;1.04;88.71;98693.94;4908145;28;102038;-70
2022/11/08 05:05:21;;;;;;;;;60.33;44.00;;;;;0.95;89.23;98686.78;4909327;28;104072;-70
2022/11/08 05:07:48;;;;;;;;;54.00;44.33;;;;;0.96;88.46;98689.31;4903722;28;103847;-70
2022/11/08 05:10:15;;;;;;;;;47.33;41.00;;;;;0.98;88.72;98691.84;4898544;28;102480;-71
2022/11/08 05:12:42;;;;;;;;;42.67;30.00;;;;;1.00;88.18;98689.88;4904149;28;102127;-72
2022/11/08 05:15:10;;;;;;;;;40.00;34.33;;;;;0.97;89.13;98695.50;4911501;28;102350;-70
2022/11/08 05:17:37;;;;;;;;;65.67;46.67;;;;;0.89;88.75;98691.72;4904557;28;109154;-70
2022/11/08 05:25:39;;;;;;;;;24.67;23.33;;;;;0.99;89.02;98693.53;4909280;28;102324;-70
2022/11/08 05:28:06;;;;;;;;;22.67;19.33;;;;;1.02;88.51;98687.94;4897195;28;108916;-70
2022/11/08 05:30:33;;;;;;;;;27.33;19.33;;;;;1.04;88.74;98685.94;4908502;28;102236;-71
2022/11/08 05:33:00;;;;;;;;;32.33;25.67;;;;;1.02;87.96;98690.59;4907083;28;102211;-71
2022/11/08 05:35:27;;;;;;;;;32.67;31.00;;;;;1.00;88.45;98692.53;4914339;28;103043;-71
2022/11/08 05:37:54;;;;;;;;;30.67;29.00;;;;;0.88;88.39;98671.38;4901023;28;103652;-70
2022/11/08 05:40:21;;;;;;;;;44.00;38.00;;;;;0.96;89.15;98696.47;4903636;28;102545;-71
2022/11/08 05:42:48;;;;;;;;;31.33;25.67;;;;;1.02;89.36;98699.44;4906473;28;103401;-71
2022/11/08 05:45:15;;;;;;;;;33.67;25.33;;;;;1.05;88.88;98701.81;4908230;28;102276;-71
2022/11/08 05:47:45;;;;;;;;;19.33;19.33;;;;;1.10;88.39;98690.72;4898771;28;104156;-71
2022/11/08 05:50:13;;;;;;;;;30.67;22.67;;;;;1.14;87.99;98692.13;4900879;28;102476;-71
2022/11/08 05:52:44;;;;;;;;;17.50;17.25;;;;;1.17;87.28;98697.19;4903258;28;102609;-70
2022/11/08 05:55:11;;;;;;;;;14.00;12.75;;;;;1.20;87.02;98702.22;4907382;28;102397;-70
2022/11/08 05:57:42;;;;;;;;;17.75;16.00;;;;;1.16;87.14;98698.16;4911839;28;103968;-71
2022/11/08 06:00:10;;;;;;;;;17.33;14.00;;;;;1.20;88.03;98704.91;4897540;28;102299;-70
2022/11/08 06:02:38;;;;;;;;;41.00;33.33;;;;;1.20;89.33;98704.91;4905284;28;102409;-70
2022/11/08 06:05:06;;;;;;;;;48.33;37.33;;;;;1.20;89.26;98702.22;4908372;28;102660;-70
2022/11/08 06:07:34;;;;;;;;;51.67;40.67;;;;;1.22;89.63;98701.09;4907673;28;104016;-69
2022/11/08 06:10:01;;;;;;;;;65.67;50.00;;;;;1.32;89.37;98715.28;4924832;28;102235;-70
2022/11/08 06:12:28;;;;;;;;;53.67;41.67;;;;;1.42;89.61;98733.91;4910733;28;102533;-70
2022/11/08 06:14:55;;;;;;;;;54.00;43.33;;;;;1.50;88.85;98726.06;4910713;28;102426;-70
2022/11/08 06:17:22;;;;;;;;;33.67;28.33;;;;;1.59;89.73;98730.53;4913256;28;104017;-70
2022/11/08 06:19:54;;;;;;;;;38.33;35.33;;;;;1.63;88.37;98720.44;4906968;28;102224;-70
2022/11/08 06:22:21;;;;;;;;;43.00;37.00;;;;;1.65;88.20;98729.13;4912443;28;102349;-70
2022/11/08 06:24:48;;;;;;;;;46.00;39.67;;;;;1.64;87.94;98733.63;4906610;28;102634;-70
2022/11/08 06:27:15;;;;;;;;;44.67;39.33;;;;;1.65;87.30;98739.81;4908082;28;104085;-70
2022/11/08 06:29:42;;;;;;;;;49.00;37.00;;;;;1.61;87.35;98738.41;4908063;28;103017;-70
2022/11/08 06:32:09;;;;;;;;;35.00;31.00;;;;;1.62;88.17;98740.09;4911390;28;102564;-70
2022/11/08 06:34:37;;;;;;;;;34.33;24.67;;;;;1.72;87.34;98736.41;4907423;28;102145;-70
2022/11/08 06:37:04;;;;;;;;;22.33;18.33;;;;;1.82;87.93;98735.56;4906097;28;104114;-70
2022/11/08 06:39:31;;;;;;;;;17.75;14.75;;;;;1.87;87.04;98738.66;4907189;28;102448;-70
2022/11/08 06:41:59;;;;;;;;;10.75;10.00;;;;;1.94;87.28;98739.75;4902689;28;102134;-70
2022/11/08 06:44:26;;;;;;;;;11.50;10.25;;;;;1.99;86.97;98733.00;4911230;28;102091;-70
2022/11/08 06:46:56;;;;;;;;;31.00;27.00;;;;;2.01;87.20;98744.38;4914138;28;104003;-70
2022/11/08 06:49:23;;;;;;;;;31.00;26.67;;;;;2.03;86.96;98754.88;4910107;28;102159;-71
2022/11/08 06:51:51;;;;;;;;;30.00;27.00;;;;;2.09;86.87;98743.66;4905231;28;103196;-71
2022/11/08 06:54:18;;;;;;;;;44.67;34.33;;;;;2.08;86.36;98739.28;4906870;28;102797;-71
2022/11/08 06:56:54;;;;;;;;;27.33;25.33;;;;;2.13;86.50;98734.38;4914864;28;103974;-70
2022/11/08 06:59:22;;;;;;;;;29.67;25.33;;;;;2.15;86.71;98732.41;4899651;28;102319;-71
2022/11/08 07:01:49;;;;;;;;;39.67;29.67;;;;;2.16;87.24;98734.91;4910985;28;102273;-70
2022/11/08 07:04:16;;;;;;;;;22.33;19.00;;;;;2.25;86.83;98743.91;4902274;28;102048;-70
2022/11/08 07:06:43;;;;;;;;;31.33;26.00;;;;;2.33;87.72;98738.66;4903642;28;103669;-70
2022/11/08 07:09:10;;;;;;;;;38.00;27.00;;;;;2.39;87.81;98734.56;4904674;28;102305;-70
2022/11/08 07:11:37;;;;;;;;;18.75;15.00;;;;;2.47;87.90;98730.19;4922872;28;102384;-70
2022/11/08 07:14:04;;;;;;;;;12.75;10.25;;;;;2.62;87.89;98734.03;4910063;28;102380;-70
2022/11/08 07:16:31;;;;;;;;;14.50;14.25;;;;;2.73;87.48;98733.00;4917376;28;104024;-70
2022/11/08 07:18:58;;;;;;;;;16.00;14.25;;;;;2.86;88.32;98738.00;4911313;28;102121;-70
2022/11/08 07:21:25;;;;;;;;;46.67;39.00;;;;;3.00;88.28;98740.16;4911820;28;101860;-70
2022/11/08 07:23:52;;;;;;;;;63.33;50.67;;;;;3.16;88.95;98735.00;4904183;28;102520;-70
2022/11/08 07:26:19;;;;;;;;;58.33;45.67;;;;;3.33;88.72;98741.38;4905060;28;104021;-69
2022/11/08 07:28:46;;;;;;;;;38.67;34.00;;;;;3.52;89.08;98736.69;4904900;28;102829;-70
2022/11/08 07:31:13;;;;;;;;;30.75;28.00;;;;;3.69;88.14;98721.66;4910120;28;103162;-70
2022/11/08 07:33:40;;;;;;;;;22.75;19.75;;;;;3.84;88.04;98735.28;4907178;28;102110;-68
2022/11/08 07:36:07;;;;;;;;;21.00;17.50;;;;;4.01;87.95;98727.22;4908454;28;110629;-70
2022/11/08 07:38:34;;;;;;;;;17.50;15.25;;;;;4.21;88.18;98729.69;4915858;28;102688;-70
2022/11/08 07:41:01;;;;;;;;;12.00;11.00;;;;;4.39;87.76;98730.47;4912047;28;102725;-70
2022/11/08 07:43:28;;;;;;;;;17.75;17.00;;;;;4.58;88.40;98729.41;4912038;28;102378;-70
2022/11/08 07:45:59;;;;;;;;;22.75;20.75;;;;;4.77;89.44;98729.16;4909928;28;107591;-70
2022/11/08 07:48:28;;;;;;;;;36.00;29.50;;;;;4.96;89.28;98723.53;4904134;28;103072;-69
2022/11/08 07:50:55;;;;;;;;;30.50;26.25;;;;;5.16;89.00;98732.97;4916319;28;102756;-70
2022/11/08 07:53:22;;;;;;;;;26.25;20.25;;;;;5.27;88.13;98716.56;4903717;28;102410;-69
2022/11/08 07:55:49;;;;;;;;;15.50;13.50;;;;;5.55;87.79;98724.31;4902424;28;103979;-69
2022/11/08 07:58:16;;;;;;;;;9.25;8.75;;;;;5.71;87.43;98727.03;4898041;28;102212;-69
2022/11/08 08:00:44;;;;;;;;;11.50;11.00;;;;;5.91;86.96;98724.84;4896356;28;102218;-69
2022/11/08 08:03:13;;;;;;;;;12.25;10.25;;;;;5.97;85.86;98719.66;4904299;28;104681;-69
2022/11/08 08:05:44;;;;;;;;;13.50;13.00;;;;;6.23;85.58;98731.03;4907840;28;104001;-69
2022/11/08 08:08:13;;;;;;;;;12.00;11.25;;;;;6.43;85.48;98730.66;4899824;28;102448;-69
2022/11/08 08:10:40;;;;;;;;;11.75;10.00;;;;;6.62;85.98;98735.63;4909203;28;101958;-69
2022/11/08 08:13:08;;;;;;;;;16.25;13.25;;;;;6.84;85.05;98732.22;4896279;28;102284;-69
2022/11/08 08:15:35;;;;;;;;;30.25;22.25;;;;;6.96;84.99;98712.00;4896507;28;103442;-69
2022/11/08 08:18:04;;;;;;;;;30.50;21.75;;;;;7.26;84.03;98726.44;4894050;28;102032;-69
2022/11/08 08:20:32;;;;;;;;;22.25;17.00;;;;;7.48;84.56;98732.84;4898767;28;102029;-69
2022/11/08 08:23:00;;;;;;;;;10.00;10.00;;;;;7.66;83.73;98719.94;4906240;28;102320;-69
2022/11/08 08:25:29;;;;;;;;;13.75;12.75;;;;;7.87;82.67;98722.84;4897999;28;103969;-69
2022/11/08 08:27:59;;;;;;;;;12.00;9.75;;;;;8.06;81.90;98722.31;4898927;28;101962;-69
2022/11/08 08:30:28;;;;;;;;;12.75;12.00;;;;;8.27;80.81;98712.72;4903366;28;104627;-69
2022/11/08 08:33:15;;;;;;;;;14.25;12.75;;;;;8.48;79.85;98715.53;4903580;28;101960;-69
2022/11/08 08:36:00;;;;;;;;;14.50;11.00;;;;;8.61;79.06;98698.72;4904433;28;108450;-69
2022/11/08 08:38:28;;;;;;;;;12.00;10.50;;;;;8.88;79.35;98716.91;4900897;28;102278;-69
2022/11/08 08:40:56;;;;;;;;;18.25;14.75;;;;;9.06;77.86;98719.22;4899576;28;102985;-69
2022/11/08 08:43:23;;;;;;;;;16.75;13.75;;;;;9.25;76.58;98718.63;4903969;28;102292;-69
2022/11/08 08:45:50;;;;;;;;;11.00;11.00;;;;;9.43;76.19;98724.44;4897797;28;104032;-69
2022/11/08 08:48:17;;;;;;;;;9.25;8.25;;;;;9.56;75.37;98719.19;4904926;28;102221;-69
2022/11/08 08:50:44;;;;;;;;;9.50;8.00;;;;;9.74;75.09;98719.59;4901537;28;102159;-69
2022/11/08 08:53:12;;;;;;;;;9.50;8.25;;;;;9.85;74.04;98710.16;4905640;28;102190;-69
2022/11/08 08:55:39;;;;;;;;;13.75;9.75;;;;;10.04;74.12;98722.16;4906197;28;108704;-70
2022/11/08 08:58:06;;;;;;;;;9.50;8.50;;;;;10.19;73.18;98720.22;4903664;28;102393;-70
2022/11/08 09:00:33;;;;;;;;;8.00;7.50;;;;;10.26;71.60;98713.03;4908077;28;102290;-70
2022/11/08 09:03:20;;;;;;;;;8.50;7.75;;;;;10.45;70.57;98733.09;4900360;28;102062;-69
2022/11/08 09:05:47;;;;;;;;;20.25;17.25;;;;;10.28;70.70;98722.59;4905284;28;103947;-70
2022/11/08 09:08:14;;;;;;;;;16.50;16.00;;;;;10.45;70.97;98725.81;4907232;28;102736;-69
2022/11/08 09:10:42;;;;;;;;;15.00;11.25;;;;;10.60;70.68;98729.28;4906990;28;102999;-69
2022/11/08 09:13:09;;;;;;;;;9.00;7.50;;;;;10.73;69.49;98729.34;4904028;28;102340;-69
2022/11/08 09:15:38;;;;;;;;;9.25;9.00;;;;;10.81;69.50;98724.84;4903641;28;104033;-68
2022/11/08 09:18:05;;;;;;;;;5.50;5.00;;;;;10.93;69.39;98720.53;4924676;28;102128;-70
2022/11/08 09:20:32;;;;;;;;;9.25;6.25;;;;;11.01;70.08;98728.47;4924574;28;102114;-70
2022/11/08 09:23:02;;;;;;;;;10.00;9.25;;;;;11.08;68.25;98729.31;4925621;28;102227;-70
2022/11/08 09:25:30;;;;;;;;;10.50;9.75;;;;;10.94;68.26;98700.56;4904974;28;103809;-70
2022/11/08 09:27:57;;;;;;;;;15.25;12.00;;;;;11.26;69.47;98726.09;4900404;28;101826;-70
2022/11/08 09:30:25;;;;;;;;;10.00;9.00;;;;;11.38;67.02;98729.88;4895483;28;102373;-70
2022/11/08 09:32:52;;;;;;;;;11.25;10.00;;;;;11.49;68.70;98727.41;4912558;28;102088;-69
2022/11/08 09:35:27;;;;;;;;;9.75;9.00;;;;;11.64;66.98;98725.38;4914324;28;105870;-69
2022/11/08 09:37:56;;;;;;;;;9.25;6.50;;;;;11.71;66.31;98725.38;4925584;28;102135;-70
2022/11/08 09:40:35;;;;;;;;;9.00;9.00;;;;;11.78;66.90;98710.00;4905687;28;102220;-70
2022/11/08 09:43:16;;;;;;;;;11.75;10.00;;;;;11.89;66.16;98716.66;4905983;28;102604;-70
2022/11/08 09:45:46;;;;;;;;;21.25;21.25;;;;;11.69;66.45;98715.78;4897842;28;108741;-70
2022/11/08 09:48:25;;;;;;;;;27.00;23.00;;;;;11.69;67.93;98718.50;4909217;28;102314;-70
2022/11/08 09:50:55;;;;;;;;;16.25;14.75;;;;;11.94;67.27;98706.88;4916609;28;102274;-69
2022/11/08 09:53:48;;;;;;;;;13.50;11.00;;;;;12.18;66.83;98710.88;4920417;28;102250;-70
2022/11/08 09:56:22;;;;;;;;;10.75;10.75;;;;;12.31;64.71;98705.44;4908292;28;108755;-70
2022/11/08 09:59:00;;;;;;;;;12.50;11.00;;;;;12.41;64.27;98710.44;4901125;28;102337;-70
2022/11/08 10:01:33;;;;;;;;;16.00;14.75;;;;;12.49;64.11;98697.50;4911601;28;101966;-69
2022/11/08 10:04:15;;;;;;;;;12.00;11.00;;;;;12.65;64.65;98701.66;4903953;28;102267;-70
2022/11/08 10:07:09;;;;;;;;;9.75;7.75;;;;;12.69;62.10;98691.22;4912705;28;109284;-70
2022/11/08 10:09:46;;;;;;;;;14.50;13.50;;;;;12.78;63.56;98696.19;4904682;28;102540;-70
2022/11/08 10:12:15;;;;;;;;;9.50;8.25;;;;;12.98;62.90;98691.53;4921006;28;102178;-70
2022/11/08 10:14:42;;;;;;;;;10.25;8.25;;;;;13.09;61.86;98686.50;4911036;28;103151;-70
2022/11/08 10:17:30;;;;;;;;;14.50;13.25;;;;;12.99;61.17;98686.94;4919468;28;104040;-70
2022/11/08 10:20:15;;;;;;;;;10.00;8.00;;;;;13.16;61.65;98680.00;4908695;28;102322;-69
2022/11/08 10:23:06;;;;;;;;;6.75;6.00;;;;;13.25;60.93;98676.00;4902809;28;102888;-70
2022/11/08 10:25:44;;;;;;;;;12.00;11.00;;;;;13.24;61.63;98676.19;4902631;28;102373;-70
2022/11/08 10:28:20;;;;;;;;;13.50;11.50;;;;;13.27;59.93;98673.91;4913906;28;108881;-70
2022/11/08 10:30:50;;;;;;;;;12.00;8.25;;;;;13.31;60.44;98658.84;4895822;28;102219;-69
2022/11/08 10:33:29;;;;;;;;;6.75;6.75;;;;;13.43;59.52;98664.41;4919221;28;102761;-70
2022/11/08 10:36:34;;;;;;;;;11.25;9.50;;;;;13.44;58.99;98657.09;4909117;28;101978;-70
2022/11/08 10:39:27;;;;;;;;;8.50;7.25;;;;;13.55;57.91;98657.25;4890034;28;108628;-71
2022/11/08 10:42:06;;;;;;;;;8.25;6.25;;;;;13.61;58.15;98658.25;4909265;28;102329;-70
2022/11/08 10:44:35;;;;;;;;;9.00;9.00;;;;;13.61;58.94;98652.81;4902776;28;102374;-70
2022/11/08 10:47:09;;;;;;;;;5.25;5.25;;;;;13.75;58.49;98651.66;4920198;28;102439;-70
2022/11/08 10:49:40;;;;;;;;;9.25;7.75;;;;;13.81;57.69;98648.06;4914295;28;104004;-70
2022/11/08 10:52:10;;;;;;;;;7.50;6.50;;;;;13.91;57.20;98648.44;4914218;28;102194;-70
2022/11/08 10:54:46;;;;;;;;;6.75;6.75;;;;;14.03;57.29;98645.81;4918022;28;104333;-70
2022/11/08 10:57:24;;;;;;;;;4.50;4.50;;;;;14.11;57.16;98642.81;4916766;28;102473;-69
2022/11/08 10:59:52;;;;;;;;;13.50;9.00;;;;;13.83;57.12;98611.47;4903863;28;103979;-69
2022/11/08 11:02:28;;;;;;;;;7.75;6.25;;;;;14.15;56.32;98639.41;4905604;28;102001;-70
2022/11/08 11:05:14;;;;;;;;;9.50;8.50;;;;;14.22;57.96;98639.38;4898162;28;102341;-70
2022/11/08 11:07:59;;;;;;;;;7.00;6.00;;;;;14.38;56.42;98640.69;4919926;28;102156;-69
2022/11/08 11:10:27;;;;;;;;;5.25;5.00;;;;;14.53;56.28;98633.03;4910207;28;108260;-69
2022/11/08 11:13:17;;;;;;;;;7.75;6.75;;;;;14.57;55.11;98632.34;4905164;28;102326;-69
2022/11/08 11:15:46;;;;;;;;;9.75;6.75;;;;;14.67;56.17;98632.66;4905033;28;102446;-69
2022/11/08 11:18:33;;;;;;;;;10.00;9.00;;;;;14.70;55.83;98631.38;4908333;28;102006;-70
2022/11/08 11:21:05;;;;;;;;;7.75;7.75;;;;;14.77;54.77;98637.56;4908308;28;104214;-70
2022/11/08 11:23:50;;;;;;;;;7.00;7.00;;;;;14.83;54.83;98625.75;4898998;28;102513;-69
2022/11/08 11:26:33;;;;;;;;;7.50;7.00;;;;;14.79;54.98;98613.66;4907882;28;102421;-70
2022/11/08 11:29:03;;;;;;;;;6.00;6.00;;;;;14.98;56.34;98623.50;4910249;28;101903;-70
2022/11/08 11:31:41;;;;;;;;;6.25;6.00;;;;;15.06;55.25;98633.22;4914646;28;104106;-70
2022/11/08 11:34:17;;;;;;;;;6.50;6.50;;;;;15.04;54.76;98622.56;4919457;28;102219;-70
2022/11/08 11:36:50;;;;;;;;;8.67;7.00;;;;;15.11;54.65;98620.59;4912080;28;102267;-70
2022/11/08 11:39:32;;;;;;;;;6.00;5.25;;;;;15.09;55.03;98622.72;4919989;28;102618;-71
2022/11/08 11:42:08;;;;;;;;;9.00;6.00;;;;;15.12;54.09;98622.28;4912107;28;104064;-70
2022/11/08 11:45:01;;;;;;;;;1.75;0.00;;;;;15.11;54.78;98623.31;4899452;28;102039;-71
2022/11/08 11:47:45;;;;;;;;;7.50;7.50;;;;;15.16;54.29;98619.91;4911879;28;102323;-70
2022/11/08 11:50:35;;;;;;;;;7.00;6.00;;;;;15.13;54.85;98609.47;4910937;28;102465;-71
2022/11/08 11:53:11;;;;;;;;;6.75;6.00;;;;;15.21;55.13;98609.16;4910698;28;104024;-71
2022/11/08 11:56:04;;;;;;;;;6.33;5.67;;;;;15.23;53.88;98609.75;4904217;28;102031;-71
2022/11/08 11:58:46;;;;;;;;;9.00;6.00;;;;;15.21;53.29;98606.44;4914218;28;102014;-69
2022/11/08 12:01:51;;;;;;;;;7.00;5.50;;;;;15.29;52.68;98597.09;4907305;28;102088;-70